Flight Track Log - Related Links

Times and Time Zones

All times are in EST time to prevent confusion due to time zone crossing. See the UAL1035 flight status page for this flight to view local times or setup timezone preferences in your user account.

Time Position Orientation Groundspeed Altitude Reporting Facility
EST Latitude Longitude Course Direction KTS MPH feet Rate Location/Type
Mon 06:51:32 PM 29.9518 -95.3331 149° Southeast 165 190 1,100  Level FlightAware ADS-B
Mon 06:51:38 PM 29.9484 -95.3286 131° Southeast 175 201 1,200 1,364 Climbing FlightAware ADS-B
Mon 06:51:54 PM 29.9394 -95.3164 130° Southeast 189 217 1,600 1,500 Climbing FlightAware ADS-B
Mon 06:52:10 PM 29.9302 -95.3034 129° Southeast 213 245 2,000 1,714 Climbing FlightAware ADS-B
Mon 06:52:22 PM 29.9226 -95.2923 128° Southeast 222 255 2,400 2,700 Climbing FlightAware ADS-B
Mon 06:52:30 PM 29.9169 -95.2839 128° Southeast 222 255 2,900 3,500 Climbing FlightAware ADS-B
Mon 06:52:34 PM 29.9143 -95.2803 130° Southeast 221 254 3,100 3,429 Climbing FlightAware ADS-B
Mon 06:52:37 PM 29.9122 -95.2778 134° Southeast 221 254 3,300 9,000 Climbing FlightAware ADS-B
Mon 06:52:38 PM 29.9081 -95.2733 137° Southeast 222 255 3,700 2,625 Climbing FlightAware ADS-B
Mon 06:52:53 PM 29.9005 -95.2654 138° Southeast 229 264 4,000 1,385 Climbing FlightAware ADS-B
Mon 06:53:04 PM 29.8916 -95.2565 139° Southeast 243 280 4,300 1,714 Climbing FlightAware ADS-B
Mon 06:53:07 PM 29.8881 -95.2537 145° Southeast 249 287 4,400 1,800 Climbing FlightAware ADS-B
Mon 06:53:14 PM 29.8813 -95.2486 147° Southeast 258 297 4,600 2,571 Climbing FlightAware ADS-B
Mon 06:53:21 PM 29.8723 -95.2420 147° Southeast 264 304 5,000 2,400 Climbing FlightAware ADS-B
Mon 06:53:29 PM 29.8658 -95.2373 148° Southeast 266 306 5,200 2,000 Climbing FlightAware ADS-B
Mon 06:53:45 PM 29.8490 -95.2250 148° Southeast 274 315 5,800 2,571 Climbing FlightAware ADS-B
Mon 06:53:50 PM 29.8428 -95.2206 148° Southeast 276 318 6,100 3,000 Climbing FlightAware ADS-B
Mon 06:53:59 PM 29.8335 -95.2145 150° Southeast 279 321 6,500 4,800 Climbing FlightAware ADS-B
Mon 06:54:00 PM 29.8268 -95.2105 153° Southeast 280 322 6,900 3,231 Climbing FlightAware ADS-B
Mon 06:54:12 PM 29.8177 -95.2050 152° Southeast 283 326 7,200 2,182 Climbing FlightAware ADS-B
Mon 06:54:22 PM 29.8061 -95.1981 153° Southeast 283 326 7,700 2,880 Climbing FlightAware ADS-B
Mon 06:54:37 PM 29.7890 -95.1875 152° Southeast 285 328 8,400 3,474 Climbing FlightAware ADS-B
Mon 06:54:41 PM 29.7785 -95.1811 152° Southeast 286 329 8,800 2,800 Climbing FlightAware ADS-B
Mon 06:54:52 PM 29.7711 -95.1766 152° Southeast 287 330 9,100 3,158 Climbing FlightAware ADS-B
Mon 06:55:00 PM 29.7586 -95.1689 152° Southeast 289 333 9,800 3,000 Climbing FlightAware ADS-B
Mon 06:55:08 PM 29.7531 -95.1655 152° Southeast 289 333 9,900 1,778 Climbing FlightAware ADS-B
Mon 06:55:27 PM 29.7310 -95.1520 152° Southeast 297 342 10,600 2,087 Climbing FlightAware ADS-B
Mon 06:55:31 PM 29.7204 -95.1453 151° Southeast 308 354 10,700 1,091 Climbing FlightAware ADS-B
Mon 06:55:38 PM 29.7167 -95.1429 151° Southeast 310 357 10,800 909 Climbing FlightAware ADS-B
Mon 06:56:04 PM 29.6810 -95.1210 152° Southeast 341 392 11,200 1,000 Climbing FlightAware ADS-B
Mon 06:56:08 PM 29.6753 -95.1176 153° Southeast 344 396 11,300 2,000 Climbing FlightAware ADS-B
Mon 06:56:10 PM 29.6660 -95.1119 152° Southeast 354 407 11,400 1,000 Climbing FlightAware ADS-B
Mon 06:56:38 PM 29.6306 -95.0901 152° Southeast 377 434 11,800 1,161 Climbing FlightAware ADS-B
Mon 06:56:41 PM 29.6196 -95.0832 152° Southeast 383 441 12,000 2,200 Climbing FlightAware ADS-B
Mon 06:57:08 PM 29.5831 -95.0606 152° Southeast 388 447 12,900 2,000 Climbing FlightAware ADS-B
Mon 06:57:11 PM 29.5790 -95.0580 151° Southeast 390 449 13,000 3,333 Climbing FlightAware ADS-B
Mon 06:57:17 PM 29.5651 -95.0495 152° Southeast 392 451 13,400 2,118 Climbing FlightAware ADS-B
Mon 06:57:45 PM 29.5241 -95.0241 152° Southeast 398 458 14,200 1,742 Climbing FlightAware ADS-B
Mon 06:57:48 PM 29.5190 -95.0210 152° Southeast 399 459 14,300 2,250 Climbing FlightAware ADS-B
Mon 06:58:09 PM 29.4773 -94.9953 152° Southeast 392 451 15,100 2,069 Climbing FlightAware ADS-B
Mon 06:58:17 PM 29.4720 -94.9920 151° Southeast 408 470 15,300 2,069 Climbing FlightAware ADS-B
Mon 06:58:38 PM 29.4370 -94.9700 151° Southeast 410 472 16,100 2,400 Climbing FlightAware ADS-B
Mon 06:58:47 PM 29.4208 -94.9606 153° Southeast 409 471 16,500 3,000 Climbing FlightAware ADS-B
Mon 06:58:50 PM 29.4084 -94.9530 152° Southeast 412 474 16,700 1,765 Climbing FlightAware ADS-B
Mon 06:59:04 PM 29.3930 -94.9440 153° Southeast 413 475 17,000 1,556 Climbing FlightAware ADS-B
Mon 06:59:17 PM 29.3702 -94.9296 151° Southeast 417 480 17,400 2,250 Climbing FlightAware ADS-B
Mon 06:59:20 PM 29.3618 -94.9245 152° Southeast 419 482 17,600 1,742 Climbing FlightAware ADS-B
Mon 06:59:48 PM 29.3172 -94.8971 152° Southeast 422 486 18,300 1,750 Climbing FlightAware ADS-B
Mon 07:00:08 PM 29.2824 -94.8757 152° Southeast 424 488 19,000 1,920 Climbing FlightAware ADS-B
Mon 07:00:13 PM 29.2750 -94.8710 151° Southeast 413 475 19,100 1,800 Climbing FlightAware ADS-B
Mon 07:00:18 PM 29.2653 -94.8639 147° Southeast 428 493 19,300 1,833 Climbing FlightAware ADS-B
Mon 07:00:49 PM 29.2155 -94.8224 144° Southeast 435 501 20,200 1,619 Climbing FlightAware ADS-B
Mon 07:01:21 PM 29.1642 -94.7789 143° Southeast 442 509 21,000 1,548 Climbing FlightAware ADS-B
Mon 07:01:51 PM 29.1137 -94.7362 144° Southeast 448 516 21,800 1,756 Climbing FlightAware ADS-B
Mon 07:02:02 PM 29.0960 -94.7210 143° Southeast 449 517 22,200 1,935 Climbing FlightAware ADS-B
Mon 07:02:22 PM 29.0621 -94.6927 144° Southeast 449 517 22,800 1,655 Climbing FlightAware ADS-B
Mon 07:03:00 PM 28.9982 -94.6390 144° Southeast 452 520 23,800 1,500 Climbing FlightAware ADS-B
Mon 07:03:10 PM 28.9820 -94.6260 145° Southeast 455 524 24,000 1,455 Climbing FlightAware ADS-B
Mon 07:03:33 PM 28.9430 -94.5923 143° Southeast 456 525 24,600 1,368 Climbing FlightAware ADS-B
Mon 07:04:07 PM 28.8845 -94.5431 144° Southeast 460 529 25,300 1,254 Climbing FlightAware ADS-B
Mon 07:04:40 PM 28.8268 -94.4948 144° Southeast 464 534 26,000 1,200 Climbing FlightAware ADS-B
Mon 07:05:17 PM 28.7631 -94.4416 144° Southeast 469 540 26,700 1,254 Climbing FlightAware ADS-B
Mon 07:05:47 PM 28.7096 -94.3970 144° Southeast 471 542 27,400 2,182 Climbing FlightAware ADS-B
Mon 07:06:23 PM 28.6482 -94.3458 144° Southeast 450 518 29,100 2,057 Climbing FlightAware ADS-B
Mon 07:06:57 PM 28.5921 -94.2995 144° Southeast 446 513 29,800 1,219 Climbing FlightAware ADS-B
Mon 07:07:27 PM 28.5409 -94.2571 144° Southeast 451 519 30,400 985 Climbing FlightAware ADS-B
Mon 07:08:04 PM 28.4781 -94.2050 144° Southeast 458 527 30,900 1,083 Climbing FlightAware ADS-B
Mon 07:08:39 PM 28.4183 -94.1551 144° Southeast 453 521 31,700 1,545 Climbing FlightAware ADS-B
Mon 07:09:10 PM 28.3673 -94.1134 144° Southeast 442 509 32,600 1,200 Climbing FlightAware ADS-B
Mon 07:10:09 PM 28.2694 -94.0326 144° Southeast 442 509 33,500 725 Climbing FlightAware ADS-B
Mon 07:10:41 PM 28.2180 -93.9900 144° Southeast 443 510 33,700 514 Climbing FlightAware ADS-B
Mon 07:11:19 PM 28.1548 -93.9379 144° Southeast 446 513 34,100 514 Climbing FlightAware ADS-B
Mon 07:11:51 PM 28.1164 -93.9058 144° Southeast 444 511 34,300 511 Climbing Houston Center
Mon 07:12:53 PM 28.0144 -93.8208 144° Southeast 453 521 34,900 339 Climbing Houston Center
Mon 07:13:55 PM 27.9103 -93.7353 144° Southeast 462 532 35,000 48 Climbing Houston Center
Mon 07:14:57 PM 27.8031 -93.6500 145° Southeast 470 541 35,000  Level Houston Center
Mon 07:15:59 PM 27.6753 -93.5447 144° Southeast 475 547 35,000  Level Houston Center
Mon 07:17:01 PM 27.5675 -93.4575 144° Southeast 475 547 35,000  Level Houston Center
Mon 07:18:03 PM 27.4614 -93.3697 144° Southeast 473 544 35,000  Level Houston Center
Mon 07:19:05 PM 27.3544 -93.2858 145° Southeast 472 543 35,000  Level Houston Center
Mon 07:20:07 PM 27.2486 -93.1983 144° Southeast 472 543 35,000  Level Houston Center
Mon 07:21:09 PM 27.1428 -93.1122 144° Southeast 469 540 35,000  Level Houston Center
Mon 07:22:11 PM 27.0144 -93.0122 145° Southeast 469 540 35,000  Level Houston Center
Mon 07:23:13 PM 26.9183 -92.9350 144° Southeast 469 540 35,000 -48 Level Houston Center
Mon 07:24:15 PM 26.8136 -92.8500 144° Southeast 468 539 34,900 -97 Descending Houston Center
Mon 07:26:00 PM 26.6306 -92.7214 149° Southeast  Level FlightAware Approximate
Mon 07:33:00 PM 25.8839 -92.2327 150° Southeast  Level FlightAware Approximate
Mon 07:34:00 PM 25.7771 -92.1634 150° Southeast  Level FlightAware Approximate
Mon 07:35:00 PM 25.6696 -92.0934 150° Southeast  Level FlightAware Approximate
Mon 07:36:00 PM 25.5620 -92.0236 150° Southeast  Level FlightAware Approximate
Mon 07:37:00 PM 25.4554 -91.9521 148° Southeast  Level FlightAware Approximate
Mon 07:38:00 PM 25.3501 -91.8784 148° Southeast  Level FlightAware Approximate
Mon 07:39:00 PM 25.2428 -91.8083 150° Southeast  Level FlightAware Approximate
Mon 07:40:00 PM 25.1351 -91.7390 150° Southeast  Level FlightAware Approximate
Mon 07:41:00 PM 25.0274 -91.6699 150° Southeast  Level FlightAware Approximate
Mon 07:42:00 PM 24.9196 -91.6008 150° Southeast  Level FlightAware Approximate
Mon 07:43:00 PM 24.8118 -91.5319 150° Southeast  Level FlightAware Approximate
Mon 07:44:00 PM 24.7040 -91.4631 150° Southeast  Level FlightAware Approximate
Mon 07:45:00 PM 24.5961 -91.3944 150° Southeast  Level FlightAware Approximate
Mon 07:46:00 PM 24.4876 -91.3273 156° South  Level FlightAware Approximate
Mon 07:47:00 PM 24.3736 -91.2720 156° South  Level FlightAware Approximate
Mon 07:48:00 PM 24.2596 -91.2168 156° South  Level FlightAware Approximate
Mon 07:49:00 PM 24.1455 -91.1616 156° South  Level FlightAware Approximate
Mon 07:50:00 PM 24.0315 -91.1066 156° South  Level FlightAware Approximate
Mon 07:51:00 PM 23.9174 -91.0517 156° South  Level FlightAware Approximate
Mon 07:52:00 PM 23.8033 -90.9968 156° South  Level FlightAware Approximate
Mon 07:53:00 PM 23.6892 -90.9421 156° South  Level FlightAware Approximate
Mon 07:54:00 PM 23.5751 -90.8875 156° South  Level FlightAware Approximate
Mon 07:55:00 PM 23.4610 -90.8329 156° South  Level FlightAware Approximate
Mon 07:56:00 PM 23.3468 -90.7785 156° South  Level FlightAware Approximate
Mon 07:57:00 PM 23.2326 -90.7241 156° South  Level FlightAware Approximate
Mon 07:58:00 PM 23.1184 -90.6699 156° South  Level FlightAware Approximate
Mon 07:59:00 PM 23.0042 -90.6157 156° South  Level FlightAware Approximate
Mon 08:00:00 PM 22.8900 -90.5616 156° South  Level FlightAware Approximate
Mon 08:01:00 PM 22.7757 -90.5076 156° South  Level FlightAware Approximate
Mon 08:02:00 PM 22.6614 -90.4537 156° South  Level FlightAware Approximate
Mon 08:03:00 PM 22.5471 -90.3999 156° South  Level FlightAware Approximate
Mon 08:04:00 PM 22.4328 -90.3462 157° South  Level FlightAware Approximate
Mon 08:05:00 PM 22.3185 -90.2926 157° South  Level FlightAware Approximate
Mon 08:06:00 PM 22.2042 -90.2390 157° South  Level FlightAware Approximate
Mon 08:07:00 PM 22.0898 -90.1856 157° South  Level FlightAware Approximate
Mon 08:08:00 PM 21.9754 -90.1322 157° South  Level FlightAware Approximate
Mon 08:09:00 PM 21.8610 -90.0789 157° South  Level FlightAware Approximate
Mon 08:10:00 PM 21.7466 -90.0257 157° South  Level FlightAware Approximate
Mon 08:11:00 PM 21.6322 -89.9726 157° South  Level FlightAware Approximate
Mon 08:12:00 PM 21.5175 -89.9203 157° South  Level FlightAware Approximate
Mon 08:13:00 PM 21.4025 -89.8686 157° South  Level FlightAware Approximate
Mon 08:14:00 PM 21.2876 -89.8169 157° South  Level FlightAware Approximate
Mon 08:15:00 PM 21.1733 -89.7636 156° South  Level FlightAware Approximate
Mon 08:16:00 PM 21.0593 -89.7096 156° South  Level FlightAware Approximate
Mon 08:17:00 PM 20.9453 -89.6557 156° South  Level FlightAware Approximate
Mon 08:18:00 PM 20.8298 -89.6056 158° South  Level FlightAware Approximate
Mon 08:19:00 PM 20.7141 -89.5561 158° South  Level FlightAware Approximate
Mon 08:20:00 PM 20.5976 -89.5090 159° South  Level FlightAware Approximate
Mon 08:21:00 PM 20.4809 -89.4623 159° South  Level FlightAware Approximate
Mon 08:22:00 PM 20.3631 -89.4189 161° South  Level FlightAware Approximate
Mon 08:23:00 PM 20.2449 -89.3767 161° South  Level FlightAware Approximate
Mon 08:24:00 PM 20.1280 -89.3308 159° South  Level FlightAware Approximate
Mon 08:25:00 PM 20.0115 -89.2837 159° South  Level FlightAware Approximate
Mon 08:26:00 PM 19.8950 -89.2367 159° South  Level FlightAware Approximate
Mon 08:27:00 PM 19.7785 -89.1898 159° South  Level FlightAware Approximate
Mon 08:28:00 PM 19.6619 -89.1429 159° South  Level FlightAware Approximate
Mon 08:29:00 PM 19.5453 -89.0961 159° South  Level FlightAware Approximate
Mon 08:30:00 PM 19.4288 -89.0493 159° South  Level FlightAware Approximate
Mon 08:31:00 PM 19.3122 -89.0027 159° South  Level FlightAware Approximate
Mon 08:32:00 PM 19.1956 -88.9561 159° South  Level FlightAware Approximate
Mon 08:33:00 PM 19.0790 -88.9095 159° South  Level FlightAware Approximate
Mon 08:34:00 PM 18.9624 -88.8631 159° South  Level FlightAware Approximate
Mon 08:35:00 PM 18.8457 -88.8167 159° South  Level FlightAware Approximate
Mon 08:36:00 PM 18.7291 -88.7703 159° South  Level FlightAware Approximate
Mon 08:37:00 PM 18.6124 -88.7240 159° South  Level FlightAware Approximate
Mon 08:38:00 PM 18.4958 -88.6778 159° South  Level FlightAware Approximate
Mon 08:39:00 PM 18.3793 -88.6312 154° Southeast  Level FlightAware Approximate
Mon 08:40:00 PM 18.2673 -88.5737 154° Southeast  Level FlightAware Approximate
Mon 08:41:00 PM 18.1553 -88.5162 154° Southeast  Level FlightAware Approximate
Mon 08:42:00 PM 18.0432 -88.4588 154° Southeast  Level FlightAware Approximate
Mon 08:43:00 PM 17.9312 -88.4014 154° Southeast  Level FlightAware Approximate
Mon 08:44:00 PM 17.8191 -88.3441 154° Southeast  Level FlightAware Approximate
Mon 08:45:00 PM 17.7071 -88.2869 154° Southeast  Level FlightAware Approximate
Mon 08:46:00 PM 17.5951 -88.2294 154° Southeast  Level FlightAware Approximate
Mon 08:47:00 PM 17.4832 -88.1720 154° Southeast  Level FlightAware Approximate
Mon 08:48:00 PM 17.3713 -88.1146 154° Southeast  Level FlightAware Approximate
Mon 08:49:00 PM 17.2593 -88.0573 154° Southeast  Level FlightAware Approximate
Mon 08:50:00 PM 17.1473 -88.0000 154° Southeast  Level FlightAware Approximate
Mon 08:51:00 PM 17.0353 -87.9428 154° Southeast  Level FlightAware Approximate
Mon 08:52:00 PM 16.9233 -87.8857 154° Southeast  Level FlightAware Approximate
Mon 08:53:00 PM 16.8113 -87.8287 154° Southeast  Level FlightAware Approximate
Mon 08:54:00 PM 16.6992 -87.7717 154° Southeast  Level FlightAware Approximate
Mon 08:55:00 PM 16.5872 -87.7148 154° Southeast  Level FlightAware Approximate
Mon 08:56:00 PM 16.4751 -87.6580 154° Southeast  Level FlightAware Approximate
Mon 08:57:00 PM 16.3630 -87.6012 154° Southeast  Level FlightAware Approximate
Mon 08:58:00 PM 16.2509 -87.5445 154° Southeast  Level FlightAware Approximate
Mon 08:59:00 PM 16.1388 -87.4878 154° Southeast  Level FlightAware Approximate
Mon 09:00:00 PM 16.0263 -87.4310 154° Southeast  Level FlightAware Approximate
Mon 09:01:00 PM 15.9137 -87.3743 154° Southeast  Level FlightAware Approximate
Mon 09:02:00 PM 15.8011 -87.3176 154° Southeast  Level FlightAware Approximate
Mon 09:03:00 PM 15.6885 -87.2611 154° Southeast  Level FlightAware Approximate
Mon 09:04:00 PM 15.5759 -87.2046 154° Southeast  Level FlightAware Approximate
Mon 09:05:00 PM 15.4632 -87.1483 154° Southeast  Level FlightAware Approximate
Mon 09:06:00 PM 15.3498 -87.0935 155° Southeast  Level FlightAware Approximate
Mon 09:07:00 PM 15.2362 -87.0393 155° Southeast  Level FlightAware Approximate
Mon 09:08:00 PM 15.1226 -86.9852 155° Southeast  Level FlightAware Approximate
Mon 09:09:00 PM 15.0089 -86.9311 155° Southeast  Level FlightAware Approximate
Mon 09:10:00 PM 14.8953 -86.8771 155° Southeast  Level FlightAware Approximate
Mon 09:11:00 PM 14.7816 -86.8232 155° Southeast  Level FlightAware Approximate
Mon 09:12:00 PM 14.6679 -86.7693 155° Southeast  Level FlightAware Approximate
Mon 09:13:00 PM 14.5542 -86.7154 155° Southeast  Level FlightAware Approximate
Mon 09:14:00 PM 14.4405 -86.6616 155° Southeast  Level FlightAware Approximate
Mon 09:15:00 PM 14.3267 -86.6079 155° Southeast  Level FlightAware Approximate
Mon 09:16:00 PM 14.2130 -86.5542 155° Southeast  Level FlightAware Approximate
Mon 09:17:00 PM 14.0992 -86.5006 155° Southeast  Level FlightAware Approximate
Mon 09:18:00 PM 13.9855 -86.4471 155° Southeast  Level FlightAware Approximate
Mon 09:19:00 PM 13.8717 -86.3935 155° Southeast  Level FlightAware Approximate
Mon 09:20:00 PM 13.7576 -86.3407 156° South  Level FlightAware Approximate
Mon 09:21:00 PM 13.6435 -86.2881 156° South  Level FlightAware Approximate
Mon 09:22:00 PM 13.5293 -86.2355 156° South  Level FlightAware Approximate
Mon 09:23:00 PM 13.4151 -86.1830 156° South  Level FlightAware Approximate
Mon 09:24:00 PM 13.3010 -86.1305 156° South  Level FlightAware Approximate
Mon 09:25:00 PM 13.1868 -86.0781 156° South  Level FlightAware Approximate
Mon 09:26:00 PM 13.0726 -86.0257 156° South  Level FlightAware Approximate
Mon 09:27:00 PM 12.9584 -85.9734 156° South  Level FlightAware Approximate
Mon 09:28:00 PM 12.8441 -85.9211 156° South  Level FlightAware Approximate
Mon 09:29:00 PM 12.7299 -85.8689 156° South  Level FlightAware Approximate
Mon 09:30:00 PM 12.6157 -85.8167 156° South  Level FlightAware Approximate
Mon 09:31:00 PM 12.5014 -85.7646 156° South  Level FlightAware Approximate
Mon 09:32:00 PM 12.3872 -85.7125 156° South  Level FlightAware Approximate
Mon 09:33:00 PM 12.2729 -85.6604 156° South  Level FlightAware Approximate
Mon 09:34:00 PM 12.1586 -85.6085 156° South  Level FlightAware Approximate
Mon 09:35:00 PM 12.0442 -85.5567 156° South  Level FlightAware Approximate
Mon 09:36:00 PM 11.9299 -85.5050 156° South  Level FlightAware Approximate
Mon 09:37:00 PM 11.8155 -85.4532 156° South  Level FlightAware Approximate
Mon 09:38:00 PM 11.7011 -85.4016 156° South  Level FlightAware Approximate
Mon 09:39:00 PM 11.5867 -85.3499 156° South  Level FlightAware Approximate
Mon 09:40:00 PM 11.4734 -85.2960 154° Southeast  Level FlightAware Approximate
Mon 09:41:00 PM 11.3605 -85.2410 154° Southeast  Level FlightAware Approximate
Mon 09:42:00 PM 11.2476 -85.1861 154° Southeast  Level FlightAware Approximate
Mon 09:43:00 PM 11.1348 -85.1312 154° Southeast  Level FlightAware Approximate
Mon 09:44:00 PM 11.0219 -85.0763 155° Southeast  Level FlightAware Approximate
Mon 09:45:00 PM 10.9090 -85.0215 154° Southeast  Level FlightAware Approximate
Mon 09:46:00 PM 10.7962 -84.9665 154° Southeast  Level FlightAware Approximate
Mon 09:47:00 PM 10.6833 -84.9116 154° Southeast  Level FlightAware Approximate
Mon 09:48:00 PM 10.5705 -84.8567 154° Southeast  Level FlightAware Approximate
Mon 09:49:00 PM 10.4576 -84.8018 154° Southeast  Level FlightAware Approximate
Mon 09:50:00 PM 10.3448 -84.7470 154° Southeast  Level FlightAware Approximate
Mon 09:51:00 PM 10.2314 -84.6933 155° Southeast  Level FlightAware Approximate
Mon 09:52:00 PM 10.1179 -84.6399 155° Southeast  Level FlightAware Approximate
Mon 09:53:00 PM 10.0044 -84.5866 155° Southeast  Level FlightAware Approximate
Mon 09:54:00 PM 9.8909 -84.5333 155° Southeast  Level FlightAware Approximate
Mon 09:55:00 PM 9.7773 -84.4801 155° Southeast  Level FlightAware Approximate
Mon 09:56:00 PM 9.6638 -84.4269 155° Southeast  Level FlightAware Approximate
Mon 09:57:00 PM 9.5502 -84.3737 155° Southeast  Level FlightAware Approximate
Mon 09:58:00 PM 9.4367 -84.3206 155° Southeast  Level FlightAware Approximate
Mon 09:59:00 PM 9.3231 -84.2675 155° Southeast  Level FlightAware Approximate
Mon 10:00:00 PM 9.2095 -84.2144 155° Southeast  Level FlightAware Approximate
Mon 10:01:00 PM 9.0959 -84.1614 155° Southeast  Level FlightAware Approximate
Mon 10:02:00 PM 8.9823 -84.1084 155° Southeast  Level FlightAware Approximate
Mon 10:03:00 PM 8.8687 -84.0555 155° Southeast  Level FlightAware Approximate
Mon 10:04:00 PM 8.7551 -84.0025 155° Southeast  Level FlightAware Approximate
Mon 10:05:00 PM 8.6415 -83.9496 155° Southeast  Level FlightAware Approximate
Mon 10:06:00 PM 8.5279 -83.8968 155° Southeast  Level FlightAware Approximate
Mon 10:07:00 PM 8.4142 -83.8439 155° Southeast  Level FlightAware Approximate
Mon 10:08:00 PM 8.3006 -83.7911 155° Southeast  Level FlightAware Approximate
Mon 10:09:00 PM 8.1869 -83.7384 155° Southeast  Level FlightAware Approximate
Mon 10:10:00 PM 8.0733 -83.6856 155° Southeast  Level FlightAware Approximate
Mon 10:11:00 PM 7.9596 -83.6329 155° Southeast  Level FlightAware Approximate
Mon 10:12:00 PM 7.8460 -83.5802 155° Southeast  Level FlightAware Approximate
Mon 10:13:00 PM 7.7320 -83.5282 156° South  Level FlightAware Approximate
Mon 10:14:00 PM 7.6180 -83.4763 156° South  Level FlightAware Approximate
Mon 10:15:00 PM 7.5040 -83.4245 156° South  Level FlightAware Approximate
Mon 10:16:00 PM 7.3899 -83.3727 156° South  Level FlightAware Approximate
Mon 10:17:00 PM 7.2759 -83.3209 156° South  Level FlightAware Approximate
Mon 10:18:00 PM 7.1618 -83.2691 156° South  Level FlightAware Approximate
Mon 10:19:00 PM 7.0478 -83.2174 156° South  Level FlightAware Approximate
Mon 10:20:00 PM 6.9337 -83.1657 156° South  Level FlightAware Approximate
Mon 10:21:00 PM 6.8196 -83.1141 156° South  Level FlightAware Approximate
Mon 10:22:00 PM 6.7056 -83.0624 156° South  Level FlightAware Approximate
Mon 10:23:00 PM 6.5919 -83.0110 156° South  Level FlightAware Approximate
Mon 10:24:00 PM 6.4782 -82.9596 156° South  Level FlightAware Approximate
Mon 10:25:00 PM 6.3662 -82.9052 146° Southeast  Level FlightAware Approximate
Mon 10:26:00 PM 6.2632 -82.8347 145° Southeast  Level FlightAware Approximate
Mon 10:27:00 PM 6.1605 -82.7636 145° Southeast  Level FlightAware Approximate
Mon 10:28:00 PM 6.0579 -82.6925 145° Southeast  Level FlightAware Approximate
Mon 10:29:00 PM 5.9553 -82.6214 145° Southeast  Level FlightAware Approximate
Mon 10:30:00 PM 5.8526 -82.5504 145° Southeast  Level FlightAware Approximate
Mon 10:31:00 PM 5.7500 -82.4794 145° Southeast  Level FlightAware Approximate
Mon 10:32:00 PM 5.6473 -82.4083 145° Southeast  Level FlightAware Approximate
Mon 10:33:00 PM 5.5448 -82.3372 145° Southeast  Level FlightAware Approximate
Mon 10:34:00 PM 5.4422 -82.2661 145° Southeast  Level FlightAware Approximate
Mon 10:35:00 PM 5.3397 -82.1950 145° Southeast  Level FlightAware Approximate
Mon 10:36:00 PM 5.2371 -82.1239 145° Southeast  Level FlightAware Approximate
Mon 10:37:00 PM 5.1345 -82.0528 145° Southeast  Level FlightAware Approximate
Mon 10:38:00 PM 5.0319 -81.9818 145° Southeast  Level FlightAware Approximate
Mon 10:39:00 PM 4.9293 -81.9108 145° Southeast  Level FlightAware Approximate
Mon 10:40:00 PM 4.8267 -81.8398 145° Southeast  Level FlightAware Approximate
Mon 10:41:00 PM 4.7241 -81.7688 145° Southeast  Level FlightAware Approximate
Mon 10:42:00 PM 4.6215 -81.6979 145° Southeast  Level FlightAware Approximate
Mon 10:43:00 PM 4.5189 -81.6270 145° Southeast  Level FlightAware Approximate
Mon 10:44:00 PM 4.4163 -81.5561 145° Southeast  Level FlightAware Approximate
Mon 10:45:00 PM 4.3136 -81.4852 145° Southeast  Level FlightAware Approximate
Mon 10:46:00 PM 4.2110 -81.4143 145° Southeast  Level FlightAware Approximate
Mon 10:47:00 PM 4.1083 -81.3435 145° Southeast  Level FlightAware Approximate
Mon 10:48:00 PM 4.0057 -81.2727 145° Southeast  Level FlightAware Approximate
Mon 10:49:00 PM 3.9030 -81.2018 145° Southeast  Level FlightAware Approximate
Mon 10:50:00 PM 3.8003 -81.1311 145° Southeast  Level FlightAware Approximate
Mon 10:51:00 PM 3.6977 -81.0603 145° Southeast  Level FlightAware Approximate
Mon 10:52:00 PM 3.5965 -80.9905 145° Southeast  Level FlightAware Approximate
Mon 10:53:00 PM 3.4952 -80.9208 145° Southeast  Level FlightAware Approximate
Mon 10:54:00 PM 3.3940 -80.8511 145° Southeast  Level FlightAware Approximate
Mon 10:55:00 PM 3.2928 -80.7814 145° Southeast  Level FlightAware Approximate
Mon 10:56:00 PM 3.1916 -80.7117 145° Southeast  Level FlightAware Approximate
Mon 10:57:00 PM 3.0903 -80.6420 146° Southeast  Level FlightAware Approximate
Mon 10:58:00 PM 2.9891 -80.5723 146° Southeast  Level FlightAware Approximate
Mon 10:59:00 PM 2.8878 -80.5027 146° Southeast  Level FlightAware Approximate
Mon 11:00:00 PM 2.7866 -80.4331 146° Southeast  Level FlightAware Approximate
Mon 11:01:00 PM 2.6853 -80.3634 146° Southeast  Level FlightAware Approximate
Mon 11:02:00 PM 2.5840 -80.2938 146° Southeast  Level FlightAware Approximate
Mon 11:03:00 PM 2.4828 -80.2242 146° Southeast  Level FlightAware Approximate
Mon 11:04:00 PM 2.3815 -80.1546 146° Southeast  Level FlightAware Approximate
Mon 11:05:00 PM 2.2803 -80.0851 146° Southeast  Level FlightAware Approximate
Mon 11:06:00 PM 2.1790 -80.0155 146° Southeast  Level FlightAware Approximate
Mon 11:07:00 PM 2.0777 -79.9459 146° Southeast  Level FlightAware Approximate
Mon 11:08:00 PM 1.9764 -79.8764 146° Southeast  Level FlightAware Approximate
Mon 11:09:00 PM 1.8751 -79.8068 146° Southeast  Level FlightAware Approximate
Mon 11:10:00 PM 1.7737 -79.7374 146° Southeast  Level FlightAware Approximate
Mon 11:11:00 PM 1.6722 -79.6682 146° Southeast  Level FlightAware Approximate
Mon 11:12:00 PM 1.5707 -79.5990 146° Southeast  Level FlightAware Approximate
Mon 11:13:00 PM 1.4692 -79.5298 146° Southeast  Level FlightAware Approximate
Mon 11:14:00 PM 1.3621 -79.4701 148° Southeast  Level FlightAware Approximate
Mon 11:15:00 PM 1.2579 -79.4050 148° Southeast  Level FlightAware Approximate
Mon 11:16:00 PM 1.1576 -79.3340 144° Southeast  Level FlightAware Approximate
Mon 11:17:00 PM 1.0577 -79.2626 144° Southeast  Level FlightAware Approximate
Mon 11:18:00 PM 0.9577 -79.1912 144° Southeast  Level FlightAware Approximate
Mon 11:19:00 PM 0.8565 -79.1216 147° Southeast  Level FlightAware Approximate
Mon 11:20:00 PM 0.7537 -79.0544 147° Southeast  Level FlightAware Approximate
Mon 11:21:00 PM 0.6509 -78.9871 147° Southeast  Level FlightAware Approximate
Mon 11:22:00 PM 0.5481 -78.9199 147° Southeast  Level FlightAware Approximate
Mon 11:23:00 PM 0.4462 -78.8513 143° Southeast  Level FlightAware Approximate
Mon 11:24:00 PM 0.3480 -78.7776 143° Southeast  Level FlightAware Approximate
Mon 11:25:00 PM 0.2451 -78.7105 148° Southeast  Level FlightAware Approximate
Mon 11:26:00 PM 0.1419 -78.6439 143° Southeast  Level FlightAware Approximate
Mon 11:27:00 PM 0.0437 -78.5702 143° Southeast  Level FlightAware Approximate
Mon 11:28:00 PM -0.0416 -78.4836 117° Southeast  Level FlightAware Approximate
Mon 11:29:00 PM -0.1411 -78.4882 112° Southeast  Level Estimated
Mon 11:30:00 PM -0.1411 -78.4882 112° Southeast  Level Estimated
Mon 11:31:00 PM -0.1411 -78.4882 112° Southeast  Level Estimated
Mon 11:32:00 PM -0.1411 -78.4882 112° Southeast  Level Estimated

Login

Don't have an account? Register now (free) for customized features, flight alerts, and more!